Terminal Aerodrome Forecast
Issued by NWS

Home | Current Version | Previous Version | Text Only | Print | Product List | Glossary On
Versions: 1 2 3 4 5 6 7 8 9 10 11 12 13 14 15 16
000
FTUS43 KMQT 061439 AAA
TAFIWD
TAF AMD
KIWD 061439Z 0615/0712 15009KT P6SM -RA BKN015
      TEMPO 0616/0617 BKN025
     FM061700 15008KT P6SM BKN035
     FM070200 17011KT P6SM SCT035 SCT120
      AMD LTD TO CLD VIS AND WIND=

USA.gov is the U.S. government's official web portal to all federal, state and local government web resources and services.